sensor_id;sensor_type;location;lat;lon;timestamp;temperature;humidity
15133;DHT22;7667;51.232;17.110;2023-08-30T00:00:31;14.30;99.90
15133;DHT22;7667;51.232;17.110;2023-08-30T00:02:59;14.30;99.90
15133;DHT22;7667;51.232;17.110;2023-08-30T00:05:27;14.30;99.90
15133;DHT22;7667;51.232;17.110;2023-08-30T00:07:55;14.20;99.90
15133;DHT22;7667;51.232;17.110;2023-08-30T00:10:23;14.30;99.90
15133;DHT22;7667;51.232;17.110;2023-08-30T00:12:50;14.30;99.90
15133;DHT22;7667;51.232;17.110;2023-08-30T00:15:18;14.30;99.90
15133;DHT22;7667;51.232;17.110;2023-08-30T00:17:46;14.30;99.90
15133;DHT22;7667;51.232;17.110;2023-08-30T00:20:14;14.30;99.90
15133;DHT22;7667;51.232;17.110;2023-08-30T00:22:41;14.30;99.90
15133;DHT22;7667;51.232;17.110;2023-08-30T00:25:09;14.20;99.90
15133;DHT22;7667;51.232;17.110;2023-08-30T00:27:37;14.20;99.90
15133;DHT22;7667;51.232;17.110;2023-08-30T00:30:05;14.20;99.90
15133;DHT22;7667;51.232;17.110;2023-08-30T00:32:36;14.30;99.90
15133;DHT22;7667;51.232;17.110;2023-08-30T00:35:04;14.20;99.90
15133;DHT22;7667;51.232;17.110;2023-08-30T00:37:32;14.20;99.90
15133;DHT22;7667;51.232;17.110;2023-08-30T00:40:01;14.20;99.90
15133;DHT22;7667;51.232;17.110;2023-08-30T00:42:28;14.20;99.90
15133;DHT22;7667;51.232;17.110;2023-08-30T00:44:56;14.20;99.90
15133;DHT22;7667;51.232;17.110;2023-08-30T00:47:24;14.20;99.90
15133;DHT22;7667;51.232;17.110;2023-08-30T00:49:51;14.20;99.90
15133;DHT22;7667;51.232;17.110;2023-08-30T00:52:19;14.20;99.90
15133;DHT22;7667;51.232;17.110;2023-08-30T00:54:47;14.20;99.90
15133;DHT22;7667;51.232;17.110;2023-08-30T00:57:14;14.10;99.90
15133;DHT22;7667;51.232;17.110;2023-08-30T00:59:43;14.10;99.90
15133;DHT22;7667;51.232;17.110;2023-08-30T01:02:11;14.10;99.90
15133;DHT22;7667;51.232;17.110;2023-08-30T01:04:39;14.10;99.90
15133;DHT22;7667;51.232;17.110;2023-08-30T01:07:06;14.10;99.90
15133;DHT22;7667;51.232;17.110;2023-08-30T01:09:35;14.20;99.90
15133;DHT22;7667;51.232;17.110;2023-08-30T01:12:20;14.20;99.90
15133;DHT22;7667;51.232;17.110;2023-08-30T01:15:20;14.10;99.90
15133;DHT22;7667;51.232;17.110;2023-08-30T01:17:51;14.10;99.90
15133;DHT22;7667;51.232;17.110;2023-08-30T01:20:19;14.10;99.90
15133;DHT22;7667;51.232;17.110;2023-08-30T01:23:10;14.10;99.90
15133;DHT22;7667;51.232;17.110;2023-08-30T01:26:24;14.10;99.90
15133;DHT22;7667;51.232;17.110;2023-08-30T01:28:59;14.10;99.90
15133;DHT22;7667;51.232;17.110;2023-08-30T01:31:31;14.10;99.90
15133;DHT22;7667;51.232;17.110;2023-08-30T01:34:02;14.00;99.90
15133;DHT22;7667;51.232;17.110;2023-08-30T01:36:31;14.10;99.90
15133;DHT22;7667;51.232;17.110;2023-08-30T01:38:59;14.00;99.90
15133;DHT22;7667;51.232;17.110;2023-08-30T01:41:27;14.10;99.90
15133;DHT22;7667;51.232;17.110;2023-08-30T01:43:56;14.10;99.90
15133;DHT22;7667;51.232;17.110;2023-08-30T01:46:26;14.10;99.90
15133;DHT22;7667;51.232;17.110;2023-08-30T01:48:54;14.00;99.90
15133;DHT22;7667;51.232;17.110;2023-08-30T01:51:23;14.00;99.90
15133;DHT22;7667;51.232;17.110;2023-08-30T01:53:52;14.10;99.90
15133;DHT22;7667;51.232;17.110;2023-08-30T01:56:21;14.10;99.90
15133;DHT22;7667;51.232;17.110;2023-08-30T01:58:49;14.00;99.90
15133;DHT22;7667;51.232;17.110;2023-08-30T02:01:16;14.00;99.90
15133;DHT22;7667;51.232;17.110;2023-08-30T02:03:44;14.00;99.90
15133;DHT22;7667;51.232;17.110;2023-08-30T02:06:22;14.00;99.90
15133;DHT22;7667;51.232;17.110;2023-08-30T02:09:01;14.00;99.90
15133;DHT22;7667;51.232;17.110;2023-08-30T02:11:44;14.00;99.90
15133;DHT22;7667;51.232;17.110;2023-08-30T02:14:14;13.90;99.90
15133;DHT22;7667;51.232;17.110;2023-08-30T02:16:48;13.90;99.90
15133;DHT22;7667;51.232;17.110;2023-08-30T02:19:16;13.90;99.90
15133;DHT22;7667;51.232;17.110;2023-08-30T02:21:47;13.80;99.90
15133;DHT22;7667;51.232;17.110;2023-08-30T02:24:16;13.80;99.90
15133;DHT22;7667;51.232;17.110;2023-08-30T02:26:43;13.90;99.90
15133;DHT22;7667;51.232;17.110;2023-08-30T02:29:11;13.80;99.90
15133;DHT22;7667;51.232;17.110;2023-08-30T02:31:40;13.90;99.90
15133;DHT22;7667;51.232;17.110;2023-08-30T02:34:08;13.90;99.90
15133;DHT22;7667;51.232;17.110;2023-08-30T02:36:35;13.80;99.90
15133;DHT22;7667;51.232;17.110;2023-08-30T02:39:03;13.70;99.90
15133;DHT22;7667;51.232;17.110;2023-08-30T02:41:31;13.70;99.90
15133;DHT22;7667;51.232;17.110;2023-08-30T02:43:58;13.70;99.90
15133;DHT22;7667;51.232;17.110;2023-08-30T02:46:26;13.70;99.90
15133;DHT22;7667;51.232;17.110;2023-08-30T02:48:53;13.70;99.90
15133;DHT22;7667;51.232;17.110;2023-08-30T02:51:22;13.70;99.90
15133;DHT22;7667;51.232;17.110;2023-08-30T02:53:50;13.70;99.90
15133;DHT22;7667;51.232;17.110;2023-08-30T02:56:17;13.70;99.90
15133;DHT22;7667;51.232;17.110;2023-08-30T02:58:45;13.70;99.90
15133;DHT22;7667;51.232;17.110;2023-08-30T03:01:13;13.70;99.90
15133;DHT22;7667;51.232;17.110;2023-08-30T03:03:40;13.70;99.90
15133;DHT22;7667;51.232;17.110;2023-08-30T03:06:08;13.70;99.90
15133;DHT22;7667;51.232;17.110;2023-08-30T03:08:36;13.70;99.90
15133;DHT22;7667;51.232;17.110;2023-08-30T03:11:13;13.70;99.90
15133;DHT22;7667;51.232;17.110;2023-08-30T03:13:41;13.70;99.90
15133;DHT22;7667;51.232;17.110;2023-08-30T03:16:15;13.80;99.90
15133;DHT22;7667;51.232;17.110;2023-08-30T03:18:44;13.70;99.90
15133;DHT22;7667;51.232;17.110;2023-08-30T03:21:11;13.70;99.90
15133;DHT22;7667;51.232;17.110;2023-08-30T03:23:40;13.70;99.90
15133;DHT22;7667;51.232;17.110;2023-08-30T03:26:12;13.70;99.90
15133;DHT22;7667;51.232;17.110;2023-08-30T03:28:42;13.80;99.90
15133;DHT22;7667;51.232;17.110;2023-08-30T03:31:17;13.80;99.90
15133;DHT22;7667;51.232;17.110;2023-08-30T03:33:47;13.70;99.90
15133;DHT22;7667;51.232;17.110;2023-08-30T03:36:16;13.70;99.90
15133;DHT22;7667;51.232;17.110;2023-08-30T03:38:45;13.70;99.90
15133;DHT22;7667;51.232;17.110;2023-08-30T03:41:13;13.70;99.90
15133;DHT22;7667;51.232;17.110;2023-08-30T03:43:41;13.70;99.90
15133;DHT22;7667;51.232;17.110;2023-08-30T03:46:08;13.70;99.90
15133;DHT22;7667;51.232;17.110;2023-08-30T03:48:39;13.70;99.90
15133;DHT22;7667;51.232;17.110;2023-08-30T03:51:06;13.70;99.90
15133;DHT22;7667;51.232;17.110;2023-08-30T03:53:34;13.70;99.90
15133;DHT22;7667;51.232;17.110;2023-08-30T03:56:02;13.60;99.90
15133;DHT22;7667;51.232;17.110;2023-08-30T03:58:31;13.60;99.90
15133;DHT22;7667;51.232;17.110;2023-08-30T04:00:59;13.70;99.90
15133;DHT22;7667;51.232;17.110;2023-08-30T04:03:26;13.70;99.90
15133;DHT22;7667;51.232;17.110;2023-08-30T04:05:57;13.70;99.90
15133;DHT22;7667;51.232;17.110;2023-08-30T04:08:25;13.70;99.90
15133;DHT22;7667;51.232;17.110;2023-08-30T04:10:53;13.70;99.90
15133;DHT22;7667;51.232;17.110;2023-08-30T04:13:21;13.70;99.90
15133;DHT22;7667;51.232;17.110;2023-08-30T04:15:49;13.70;99.90
15133;DHT22;7667;51.232;17.110;2023-08-30T04:18:17;13.70;99.90
15133;DHT22;7667;51.232;17.110;2023-08-30T04:20:45;13.70;99.90
15133;DHT22;7667;51.232;17.110;2023-08-30T04:23:14;13.70;99.90
15133;DHT22;7667;51.232;17.110;2023-08-30T04:25:41;13.70;99.90
15133;DHT22;7667;51.232;17.110;2023-08-30T04:28:09;13.70;99.90
15133;DHT22;7667;51.232;17.110;2023-08-30T04:30:37;13.70;99.90
15133;DHT22;7667;51.232;17.110;2023-08-30T04:33:06;13.70;99.90
15133;DHT22;7667;51.232;17.110;2023-08-30T04:35:33;13.70;99.90
15133;DHT22;7667;51.232;17.110;2023-08-30T04:38:01;13.70;99.90
15133;DHT22;7667;51.232;17.110;2023-08-30T04:40:31;13.70;99.90
15133;DHT22;7667;51.232;17.110;2023-08-30T04:42:59;13.80;99.90
15133;DHT22;7667;51.232;17.110;2023-08-30T04:45:27;13.70;99.90
15133;DHT22;7667;51.232;17.110;2023-08-30T04:47:54;13.70;99.90
15133;DHT22;7667;51.232;17.110;2023-08-30T04:50:23;13.80;99.90
15133;DHT22;7667;51.232;17.110;2023-08-30T04:52:50;13.80;99.90
15133;DHT22;7667;51.232;17.110;2023-08-30T04:55:18;13.70;99.90
15133;DHT22;7667;51.232;17.110;2023-08-30T04:57:45;13.70;99.90
15133;DHT22;7667;51.232;17.110;2023-08-30T05:00:14;13.70;99.90
15133;DHT22;7667;51.232;17.110;2023-08-30T05:02:42;13.70;99.90
15133;DHT22;7667;51.232;17.110;2023-08-30T05:05:13;13.80;99.90
15133;DHT22;7667;51.232;17.110;2023-08-30T05:07:41;13.80;99.90
15133;DHT22;7667;51.232;17.110;2023-08-30T05:10:09;13.80;99.90
15133;DHT22;7667;51.232;17.110;2023-08-30T05:12:37;13.90;99.90
15133;DHT22;7667;51.232;17.110;2023-08-30T05:15:05;13.80;99.90
15133;DHT22;7667;51.232;17.110;2023-08-30T05:17:33;13.80;99.90
15133;DHT22;7667;51.232;17.110;2023-08-30T05:20:00;13.80;99.90
15133;DHT22;7667;51.232;17.110;2023-08-30T05:22:28;13.80;99.90
15133;DHT22;7667;51.232;17.110;2023-08-30T05:24:56;13.80;99.90
15133;DHT22;7667;51.232;17.110;2023-08-30T05:27:23;13.80;99.90
15133;DHT22;7667;51.232;17.110;2023-08-30T05:29:51;13.80;99.90
15133;DHT22;7667;51.232;17.110;2023-08-30T05:32:19;13.90;99.90
15133;DHT22;7667;51.232;17.110;2023-08-30T05:34:46;13.90;99.90
15133;DHT22;7667;51.232;17.110;2023-08-30T05:37:14;13.90;99.90
15133;DHT22;7667;51.232;17.110;2023-08-30T05:39:42;13.90;99.90
15133;DHT22;7667;51.232;17.110;2023-08-30T05:42:09;13.90;99.90
15133;DHT22;7667;51.232;17.110;2023-08-30T05:44:37;14.00;99.90
15133;DHT22;7667;51.232;17.110;2023-08-30T05:47:04;14.10;99.90
15133;DHT22;7667;51.232;17.110;2023-08-30T05:49:32;14.10;99.90
15133;DHT22;7667;51.232;17.110;2023-08-30T05:52:00;14.20;99.90
15133;DHT22;7667;51.232;17.110;2023-08-30T05:54:27;14.20;99.90
15133;DHT22;7667;51.232;17.110;2023-08-30T05:56:58;14.40;99.90
15133;DHT22;7667;51.232;17.110;2023-08-30T05:59:26;14.40;99.90
15133;DHT22;7667;51.232;17.110;2023-08-30T06:01:55;14.50;99.90
15133;DHT22;7667;51.232;17.110;2023-08-30T06:04:22;14.50;99.90
15133;DHT22;7667;51.232;17.110;2023-08-30T06:06:50;14.60;99.90
15133;DHT22;7667;51.232;17.110;2023-08-30T06:09:17;14.60;99.90
15133;DHT22;7667;51.232;17.110;2023-08-30T06:11:45;14.70;99.90
15133;DHT22;7667;51.232;17.110;2023-08-30T06:14:13;14.70;99.90
15133;DHT22;7667;51.232;17.110;2023-08-30T06:16:40;14.80;99.90
15133;DHT22;7667;51.232;17.110;2023-08-30T06:19:11;14.90;99.90
15133;DHT22;7667;51.232;17.110;2023-08-30T06:21:39;15.00;99.90
15133;DHT22;7667;51.232;17.110;2023-08-30T06:24:06;15.10;99.90
15133;DHT22;7667;51.232;17.110;2023-08-30T06:26:34;15.10;99.90
15133;DHT22;7667;51.232;17.110;2023-08-30T06:29:02;15.00;99.90
15133;DHT22;7667;51.232;17.110;2023-08-30T06:31:31;14.90;99.90
15133;DHT22;7667;51.232;17.110;2023-08-30T06:34:00;15.00;99.90
15133;DHT22;7667;51.232;17.110;2023-08-30T06:36:27;15.10;99.90
15133;DHT22;7667;51.232;17.110;2023-08-30T06:38:55;15.10;99.90
15133;DHT22;7667;51.232;17.110;2023-08-30T06:41:23;15.10;99.90
15133;DHT22;7667;51.232;17.110;2023-08-30T06:43:50;15.40;99.90
15133;DHT22;7667;51.232;17.110;2023-08-30T06:46:18;15.30;99.90
15133;DHT22;7667;51.232;17.110;2023-08-30T06:48:45;15.40;99.90
15133;DHT22;7667;51.232;17.110;2023-08-30T06:51:13;15.30;99.90
15133;DHT22;7667;51.232;17.110;2023-08-30T06:53:41;15.30;99.90
15133;DHT22;7667;51.232;17.110;2023-08-30T06:56:08;15.40;99.90
15133;DHT22;7667;51.232;17.110;2023-08-30T06:58:36;15.20;99.90
15133;DHT22;7667;51.232;17.110;2023-08-30T07:01:04;15.10;99.90
15133;DHT22;7667;51.232;17.110;2023-08-30T07:03:31;14.90;99.90
15133;DHT22;7667;51.232;17.110;2023-08-30T07:05:59;14.80;99.90
15133;DHT22;7667;51.232;17.110;2023-08-30T07:08:27;14.70;99.90
15133;DHT22;7667;51.232;17.110;2023-08-30T07:10:56;14.60;99.90
15133;DHT22;7667;51.232;17.110;2023-08-30T07:13:24;14.50;99.90
15133;DHT22;7667;51.232;17.110;2023-08-30T07:15:51;14.40;99.90
15133;DHT22;7667;51.232;17.110;2023-08-30T07:18:19;14.50;99.90
15133;DHT22;7667;51.232;17.110;2023-08-30T07:20:47;14.60;99.90
15133;DHT22;7667;51.232;17.110;2023-08-30T07:23:14;14.70;99.90
15133;DHT22;7667;51.232;17.110;2023-08-30T07:25:42;14.70;99.90
15133;DHT22;7667;51.232;17.110;2023-08-30T07:28:10;14.60;99.90
15133;DHT22;7667;51.232;17.110;2023-08-30T07:30:38;14.80;99.90
15133;DHT22;7667;51.232;17.110;2023-08-30T07:33:06;14.70;99.90
15133;DHT22;7667;51.232;17.110;2023-08-30T07:35:34;14.70;99.90
15133;DHT22;7667;51.232;17.110;2023-08-30T07:38:02;14.70;99.90
15133;DHT22;7667;51.232;17.110;2023-08-30T07:40:29;14.80;99.90
15133;DHT22;7667;51.232;17.110;2023-08-30T07:42:58;14.70;99.90
15133;DHT22;7667;51.232;17.110;2023-08-30T07:45:26;14.70;99.90
15133;DHT22;7667;51.232;17.110;2023-08-30T07:47:54;14.80;99.90
15133;DHT22;7667;51.232;17.110;2023-08-30T07:50:21;15.10;99.90
15133;DHT22;7667;51.232;17.110;2023-08-30T07:52:49;15.40;99.90
15133;DHT22;7667;51.232;17.110;2023-08-30T07:55:17;15.60;99.90
15133;DHT22;7667;51.232;17.110;2023-08-30T07:57:44;15.60;99.90
15133;DHT22;7667;51.232;17.110;2023-08-30T08:00:13;15.50;99.90
15133;DHT22;7667;51.232;17.110;2023-08-30T08:02:41;15.40;99.90
15133;DHT22;7667;51.232;17.110;2023-08-30T08:05:08;15.50;99.90
15133;DHT22;7667;51.232;17.110;2023-08-30T08:07:42;15.50;99.90
15133;DHT22;7667;51.232;17.110;2023-08-30T08:10:10;15.70;99.90
15133;DHT22;7667;51.232;17.110;2023-08-30T08:12:37;15.70;99.90
15133;DHT22;7667;51.232;17.110;2023-08-30T08:15:06;15.90;99.90
15133;DHT22;7667;51.232;17.110;2023-08-30T08:17:33;15.90;99.90
15133;DHT22;7667;51.232;17.110;2023-08-30T08:20:02;15.90;99.90
15133;DHT22;7667;51.232;17.110;2023-08-30T08:22:31;15.70;99.90
15133;DHT22;7667;51.232;17.110;2023-08-30T08:24:58;15.50;99.90
15133;DHT22;7667;51.232;17.110;2023-08-30T08:27:26;15.30;99.90
15133;DHT22;7667;51.232;17.110;2023-08-30T08:29:54;15.20;99.90
15133;DHT22;7667;51.232;17.110;2023-08-30T08:32:22;15.30;99.90
15133;DHT22;7667;51.232;17.110;2023-08-30T08:34:50;15.50;99.90
15133;DHT22;7667;51.232;17.110;2023-08-30T08:37:18;15.50;99.90
15133;DHT22;7667;51.232;17.110;2023-08-30T08:39:45;15.50;99.90
15133;DHT22;7667;51.232;17.110;2023-08-30T08:42:16;15.50;99.90
15133;DHT22;7667;51.232;17.110;2023-08-30T08:44:46;15.50;99.90
15133;DHT22;7667;51.232;17.110;2023-08-30T08:47:19;15.50;99.90
15133;DHT22;7667;51.232;17.110;2023-08-30T08:49:47;15.50;99.90
15133;DHT22;7667;51.232;17.110;2023-08-30T08:52:16;15.60;99.90
15133;DHT22;7667;51.232;17.110;2023-08-30T08:54:55;15.60;99.90
15133;DHT22;7667;51.232;17.110;2023-08-30T08:57:24;15.60;99.90
15133;DHT22;7667;51.232;17.110;2023-08-30T08:59:51;15.60;99.90
15133;DHT22;7667;51.232;17.110;2023-08-30T09:02:19;15.70;99.90
15133;DHT22;7667;51.232;17.110;2023-08-30T09:04:47;15.70;99.90
15133;DHT22;7667;51.232;17.110;2023-08-30T09:07:15;15.60;99.90
15133;DHT22;7667;51.232;17.110;2023-08-30T09:09:42;15.50;99.90
15133;DHT22;7667;51.232;17.110;2023-08-30T09:12:10;15.40;99.90
15133;DHT22;7667;51.232;17.110;2023-08-30T09:14:38;15.70;99.90
15133;DHT22;7667;51.232;17.110;2023-08-30T09:17:05;15.90;99.90
15133;DHT22;7667;51.232;17.110;2023-08-30T09:19:33;15.70;99.90
15133;DHT22;7667;51.232;17.110;2023-08-30T09:22:01;15.60;99.90
15133;DHT22;7667;51.232;17.110;2023-08-30T09:24:39;15.40;99.90
15133;DHT22;7667;51.232;17.110;2023-08-30T09:27:07;15.60;99.90
15133;DHT22;7667;51.232;17.110;2023-08-30T09:29:35;15.60;99.90
15133;DHT22;7667;51.232;17.110;2023-08-30T09:32:02;15.50;99.90
15133;DHT22;7667;51.232;17.110;2023-08-30T09:34:30;15.30;99.90
15133;DHT22;7667;51.232;17.110;2023-08-30T09:36:58;15.20;99.90
15133;DHT22;7667;51.232;17.110;2023-08-30T09:39:31;15.20;99.90
15133;DHT22;7667;51.232;17.110;2023-08-30T09:42:00;15.20;99.90
15133;DHT22;7667;51.232;17.110;2023-08-30T09:44:29;15.00;99.90
15133;DHT22;7667;51.232;17.110;2023-08-30T09:46:57;15.00;99.90
15133;DHT22;7667;51.232;17.110;2023-08-30T09:49:26;14.90;99.90
15133;DHT22;7667;51.232;17.110;2023-08-30T09:51:54;15.10;99.90
15133;DHT22;7667;51.232;17.110;2023-08-30T09:54:24;15.80;99.90
15133;DHT22;7667;51.232;17.110;2023-08-30T09:56:55;16.50;99.90
15133;DHT22;7667;51.232;17.110;2023-08-30T09:59:26;16.80;99.90
15133;DHT22;7667;51.232;17.110;2023-08-30T10:01:54;17.00;99.90
15133;DHT22;7667;51.232;17.110;2023-08-30T10:04:23;17.60;99.90
15133;DHT22;7667;51.232;17.110;2023-08-30T10:06:52;17.80;99.90
15133;DHT22;7667;51.232;17.110;2023-08-30T10:09:21;17.90;99.90
15133;DHT22;7667;51.232;17.110;2023-08-30T10:11:49;17.70;99.90
15133;DHT22;7667;51.232;17.110;2023-08-30T10:14:17;17.30;99.90
15133;DHT22;7667;51.232;17.110;2023-08-30T10:16:49;16.80;99.90
15133;DHT22;7667;51.232;17.110;2023-08-30T10:19:27;16.70;99.90
15133;DHT22;7667;51.232;17.110;2023-08-30T10:22:06;17.00;99.90
15133;DHT22;7667;51.232;17.110;2023-08-30T10:24:46;17.20;99.90
15133;DHT22;7667;51.232;17.110;2023-08-30T10:27:37;17.20;99.90
15133;DHT22;7667;51.232;17.110;2023-08-30T10:30:09;16.70;99.90
15133;DHT22;7667;51.232;17.110;2023-08-30T10:32:44;17.00;99.90
15133;DHT22;7667;51.232;17.110;2023-08-30T10:35:14;17.10;99.90
15133;DHT22;7667;51.232;17.110;2023-08-30T10:37:59;16.90;99.90
15133;DHT22;7667;51.232;17.110;2023-08-30T10:40:27;16.90;99.90
15133;DHT22;7667;51.232;17.110;2023-08-30T10:43:04;16.80;99.90
15133;DHT22;7667;51.232;17.110;2023-08-30T10:45:32;16.60;99.90
15133;DHT22;7667;51.232;17.110;2023-08-30T10:48:00;16.30;99.90
15133;DHT22;7667;51.232;17.110;2023-08-30T10:50:32;16.10;99.90
15133;DHT22;7667;51.232;17.110;2023-08-30T10:53:00;16.00;99.90
15133;DHT22;7667;51.232;17.110;2023-08-30T10:55:28;15.80;99.90
15133;DHT22;7667;51.232;17.110;2023-08-30T10:58:00;15.90;99.90
15133;DHT22;7667;51.232;17.110;2023-08-30T11:00:30;16.00;99.90
15133;DHT22;7667;51.232;17.110;2023-08-30T11:02:58;16.20;99.90
15133;DHT22;7667;51.232;17.110;2023-08-30T11:05:27;16.70;99.90
15133;DHT22;7667;51.232;17.110;2023-08-30T11:07:56;17.00;99.90
15133;DHT22;7667;51.232;17.110;2023-08-30T11:10:24;17.50;99.90
15133;DHT22;7667;51.232;17.110;2023-08-30T11:12:52;17.50;99.90
15133;DHT22;7667;51.232;17.110;2023-08-30T11:15:20;16.90;99.90
15133;DHT22;7667;51.232;17.110;2023-08-30T11:17:49;16.50;99.90
15133;DHT22;7667;51.232;17.110;2023-08-30T11:20:17;16.60;99.90
15133;DHT22;7667;51.232;17.110;2023-08-30T11:22:48;17.00;99.90
15133;DHT22;7667;51.232;17.110;2023-08-30T11:25:30;17.60;99.90
15133;DHT22;7667;51.232;17.110;2023-08-30T11:28:04;18.60;99.90
15133;DHT22;7667;51.232;17.110;2023-08-30T11:30:32;18.60;99.90
15133;DHT22;7667;51.232;17.110;2023-08-30T11:33:00;18.00;99.90
15133;DHT22;7667;51.232;17.110;2023-08-30T11:35:27;17.50;99.90
15133;DHT22;7667;51.232;17.110;2023-08-30T11:37:55;17.10;99.90
15133;DHT22;7667;51.232;17.110;2023-08-30T11:40:23;16.70;99.90
15133;DHT22;7667;51.232;17.110;2023-08-30T11:42:51;16.60;99.90
15133;DHT22;7667;51.232;17.110;2023-08-30T11:45:18;16.60;99.90
15133;DHT22;7667;51.232;17.110;2023-08-30T11:47:46;16.40;99.90
15133;DHT22;7667;51.232;17.110;2023-08-30T11:50:14;16.20;99.90
15133;DHT22;7667;51.232;17.110;2023-08-30T11:52:42;16.40;99.90
15133;DHT22;7667;51.232;17.110;2023-08-30T11:55:10;16.90;99.90
15133;DHT22;7667;51.232;17.110;2023-08-30T11:57:39;17.90;99.90
15133;DHT22;7667;51.232;17.110;2023-08-30T12:00:11;18.90;99.90
15133;DHT22;7667;51.232;17.110;2023-08-30T12:02:40;19.80;99.90
15133;DHT22;7667;51.232;17.110;2023-08-30T12:05:15;19.70;99.90
15133;DHT22;7667;51.232;17.110;2023-08-30T12:07:43;19.40;99.90
15133;DHT22;7667;51.232;17.110;2023-08-30T12:10:13;18.70;99.90
15133;DHT22;7667;51.232;17.110;2023-08-30T12:12:45;18.30;99.90
15133;DHT22;7667;51.232;17.110;2023-08-30T12:15:13;18.40;99.90
15133;DHT22;7667;51.232;17.110;2023-08-30T12:17:42;18.50;99.90
15133;DHT22;7667;51.232;17.110;2023-08-30T12:20:17;18.40;99.90
15133;DHT22;7667;51.232;17.110;2023-08-30T12:22:48;17.90;99.90
15133;DHT22;7667;51.232;17.110;2023-08-30T12:25:21;17.70;99.90
15133;DHT22;7667;51.232;17.110;2023-08-30T12:27:54;17.50;99.90
15133;DHT22;7667;51.232;17.110;2023-08-30T12:30:22;18.10;99.90
15133;DHT22;7667;51.232;17.110;2023-08-30T12:32:49;18.10;99.90
15133;DHT22;7667;51.232;17.110;2023-08-30T12:35:17;17.50;99.90
15133;DHT22;7667;51.232;17.110;2023-08-30T12:37:45;17.20;99.90
15133;DHT22;7667;51.232;17.110;2023-08-30T12:40:12;17.10;99.90
15133;DHT22;7667;51.232;17.110;2023-08-30T12:42:40;17.10;99.90
15133;DHT22;7667;51.232;17.110;2023-08-30T12:45:08;17.10;99.90
15133;DHT22;7667;51.232;17.110;2023-08-30T12:47:37;17.10;99.90
15133;DHT22;7667;51.232;17.110;2023-08-30T12:50:05;17.50;99.90
15133;DHT22;7667;51.232;17.110;2023-08-30T12:52:33;17.80;99.90
15133;DHT22;7667;51.232;17.110;2023-08-30T12:55:01;18.10;99.90
15133;DHT22;7667;51.232;17.110;2023-08-30T12:57:28;17.90;99.90
15133;DHT22;7667;51.232;17.110;2023-08-30T12:59:56;17.50;99.90
15133;DHT22;7667;51.232;17.110;2023-08-30T13:02:26;17.30;99.90
15133;DHT22;7667;51.232;17.110;2023-08-30T13:05:22;16.90;99.90
15133;DHT22;7667;51.232;17.110;2023-08-30T13:07:50;16.80;99.90
15133;DHT22;7667;51.232;17.110;2023-08-30T13:10:18;17.10;99.90
15133;DHT22;7667;51.232;17.110;2023-08-30T13:12:46;17.20;99.90
15133;DHT22;7667;51.232;17.110;2023-08-30T13:15:14;17.20;99.90
15133;DHT22;7667;51.232;17.110;2023-08-30T13:17:41;17.30;99.90
15133;DHT22;7667;51.232;17.110;2023-08-30T13:20:09;17.20;99.90
15133;DHT22;7667;51.232;17.110;2023-08-30T13:22:38;17.20;99.90
15133;DHT22;7667;51.232;17.110;2023-08-30T13:25:06;17.10;99.90
15133;DHT22;7667;51.232;17.110;2023-08-30T13:27:35;17.00;99.90
15133;DHT22;7667;51.232;17.110;2023-08-30T13:30:03;17.20;99.90
15133;DHT22;7667;51.232;17.110;2023-08-30T13:32:31;17.40;99.90
15133;DHT22;7667;51.232;17.110;2023-08-30T13:34:58;17.50;99.90
15133;DHT22;7667;51.232;17.110;2023-08-30T13:37:26;17.40;99.90
15133;DHT22;7667;51.232;17.110;2023-08-30T13:39:54;17.20;99.90
15133;DHT22;7667;51.232;17.110;2023-08-30T13:42:21;17.10;99.90
15133;DHT22;7667;51.232;17.110;2023-08-30T13:44:52;17.00;99.90
15133;DHT22;7667;51.232;17.110;2023-08-30T13:47:20;17.20;99.90
15133;DHT22;7667;51.232;17.110;2023-08-30T13:49:48;17.60;99.90
15133;DHT22;7667;51.232;17.110;2023-08-30T13:52:15;18.80;99.90
15133;DHT22;7667;51.232;17.110;2023-08-30T13:54:43;20.60;99.90
15133;DHT22;7667;51.232;17.110;2023-08-30T13:57:11;21.10;99.90
15133;DHT22;7667;51.232;17.110;2023-08-30T13:59:38;20.90;99.90
15133;DHT22;7667;51.232;17.110;2023-08-30T14:02:06;20.20;99.90
15133;DHT22;7667;51.232;17.110;2023-08-30T14:04:34;19.40;99.90
15133;DHT22;7667;51.232;17.110;2023-08-30T14:07:04;18.70;99.90
15133;DHT22;7667;51.232;17.110;2023-08-30T14:09:32;18.20;99.90
15133;DHT22;7667;51.232;17.110;2023-08-30T14:11:59;17.80;99.90
15133;DHT22;7667;51.232;17.110;2023-08-30T14:14:27;17.30;99.90
15133;DHT22;7667;51.232;17.110;2023-08-30T14:16:55;17.10;99.90
15133;DHT22;7667;51.232;17.110;2023-08-30T14:19:22;17.10;99.90
15133;DHT22;7667;51.232;17.110;2023-08-30T14:21:50;17.20;99.90
15133;DHT22;7667;51.232;17.110;2023-08-30T14:24:21;17.40;99.90
15133;DHT22;7667;51.232;17.110;2023-08-30T14:26:49;17.90;99.90
15133;DHT22;7667;51.232;17.110;2023-08-30T14:29:20;18.50;99.90
15133;DHT22;7667;51.232;17.110;2023-08-30T14:31:51;19.00;99.90
15133;DHT22;7667;51.232;17.110;2023-08-30T14:34:20;18.80;99.90
15133;DHT22;7667;51.232;17.110;2023-08-30T14:36:48;18.60;99.90
15133;DHT22;7667;51.232;17.110;2023-08-30T14:39:16;18.30;99.90
15133;DHT22;7667;51.232;17.110;2023-08-30T14:41:43;17.90;99.90
15133;DHT22;7667;51.232;17.110;2023-08-30T14:44:11;17.80;99.90
15133;DHT22;7667;51.232;17.110;2023-08-30T14:46:39;17.60;99.90
15133;DHT22;7667;51.232;17.110;2023-08-30T14:49:06;17.30;99.90
15133;DHT22;7667;51.232;17.110;2023-08-30T14:51:34;17.10;99.90
15133;DHT22;7667;51.232;17.110;2023-08-30T14:54:02;17.00;99.90
15133;DHT22;7667;51.232;17.110;2023-08-30T14:56:29;16.80;99.90
15133;DHT22;7667;51.232;17.110;2023-08-30T14:58:57;16.80;99.90
15133;DHT22;7667;51.232;17.110;2023-08-30T15:01:25;16.80;99.90
15133;DHT22;7667;51.232;17.110;2023-08-30T15:03:53;16.90;99.90
15133;DHT22;7667;51.232;17.110;2023-08-30T15:06:20;17.10;99.90
15133;DHT22;7667;51.232;17.110;2023-08-30T15:08:48;17.20;99.90
15133;DHT22;7667;51.232;17.110;2023-08-30T15:11:16;17.30;99.90
15133;DHT22;7667;51.232;17.110;2023-08-30T15:13:44;17.50;99.90
15133;DHT22;7667;51.232;17.110;2023-08-30T15:16:11;17.70;99.90
15133;DHT22;7667;51.232;17.110;2023-08-30T15:18:39;17.90;99.90
15133;DHT22;7667;51.232;17.110;2023-08-30T15:21:07;17.90;99.90
15133;DHT22;7667;51.232;17.110;2023-08-30T15:23:34;17.90;99.90
15133;DHT22;7667;51.232;17.110;2023-08-30T15:26:04;18.00;99.90
15133;DHT22;7667;51.232;17.110;2023-08-30T15:28:35;18.10;99.90
15133;DHT22;7667;51.232;17.110;2023-08-30T15:31:02;18.50;99.90
15133;DHT22;7667;51.232;17.110;2023-08-30T15:33:30;19.10;99.90
15133;DHT22;7667;51.232;17.110;2023-08-30T15:35:58;19.20;99.90
15133;DHT22;7667;51.232;17.110;2023-08-30T15:38:26;19.10;99.90
15133;DHT22;7667;51.232;17.110;2023-08-30T15:40:54;19.00;99.90